ADDS METAR Data INFO
IDs: Format: Raw Decoded Include TAF

Data at: 1145 UTC 25 Jun 2018

KGLE 250956Z AUTO 28013G17KT 10SM BKN028 BKN037 27/21 A3003 RMK AO2
KGLE 250937Z AUTO 28012G16KT 10SM SCT030 26/21 A2997 RMK AO2
KGLE 250855Z AUTO 19012KT 10SM SCT029 26/21 A2989 RMK AO2
KGLE 250735Z AUTO 18016G21KT 10SM CLR 27/21 A2986 RMK AO2
KGLE 250717Z AUTO 18012G18KT 10SM CLR 27/21 A2985 RMK AO2
KGLE 250655Z AUTO 18017G25KT 10SM CLR 28/21 A2984 RMK AO2
KGLE 250636Z AUTO 17022G28KT 10SM CLR 28/21 A2983 RMK AO2
KGLE 250557Z AUTO 14009KT 10SM CLR 24/19 A2982 RMK AO2
KGLE 250436Z AUTO 12011G16KT 10SM CLR 25/19 A2986 RMK AO2
KGLE 250235Z AUTO 11013G18KT 10SM CLR 26/19 A2983 RMK AO2
KGLE 250055Z AUTO 09017G27KT 10SM SCT070 27/19 A2985 RMK AO2
KGLE 250036Z AUTO 09014G20KT 10SM SCT070 28/20 A2985 RMK AO2
KGLE 242335Z AUTO 09015G22KT 10SM CLR 28/19 A2985 RMK AO2
KGLE 242315Z AUTO 09019G25KT 10SM CLR 28/19 A2985 RMK AO2
KGLE 242256Z AUTO 08018G26KT 10SM CLR 28/19 A2985 RMK AO2
KGLE 242217Z AUTO 04019G27KT 10SM SCT065 OVC095 27/18 A2988 RMK AO2
KGLE 241556Z AUTO 18013G21KT 10SM BKN036 BKN043 30/21 A2988 RMK AO2
KGLE 241537Z AUTO 16016G20KT 10SM BKN036 30/21 A2988 RMK AO2
KGLE 241435Z AUTO 16015G20KT 10SM SCT033 29/21 A2988 RMK AO2
KGLE 241157Z AUTO 15005KT 10SM OVC039 27/22 A2984 RMK AO2
KGLE 240856Z AUTO 14011G15KT 10SM CLR 27/22 A2970 RMK AO2
KGLE 240817Z AUTO 15014G19KT 10SM CLR 27/22 A2972 RMK AO2
KGLE 240555Z AUTO 16008KT 10SM SCT055 29/21 A2981 RMK AO2
KGLE 240535Z AUTO 15011G17KT 10SM CLR 29/21 A2981 RMK AO2
KGLE 240315Z AUTO 13012G16KT 10SM CLR 29/21 A2978 RMK AO2
KGLE 240156Z AUTO 13014KT 10SM CLR 30/20 A2975 RMK AO2
KGLE 240135Z AUTO 13012KT 10SM CLR 31/20 A2974 RMK AO2
KGLE 240116Z AUTO 13011G18KT 10SM CLR 31/21 A2974 RMK AO2
KGLE 240035Z AUTO 14014KT 10SM CLR 32/21 A2976 RMK AO2